Portada
METAR-TAF:

METAR-TAF

Aeropuertos :

Great Barrier Reef Airport

Isla Hamilton, Australia

latitud: 20-21-29S, longitud: 148-57-06E, altitud: 5 m

Observación

El informe se hizo hace 20 minutos, a las 06:00 UTC
Viento 20 kt del sureste
Temperatura 20°C
Humedad 83%
Presión 1020 hPa
Visibilidad 10 km o más

METAR: YBHM 230600Z AUTO 14020KT 9999 // NCD 20/17 Q1020 RF00.0/000.0

Hora: 16:20 (06:20 UTC)

Pronóstico

El informe se hizo hace 1 hora y 13 minutos, a las 05:07 UTC
Pronóstico válido del 23 a las 06 UTC al 23 a las 18 UTC
Viento 20 kt del sureste
Visibilidad 10 km o más
Nubes dispersas a una altura de 2500 ft
A partir de las 23 a las 1100 UTC
Viento 20 kt del sureste
Visibilidad: 5000 m
Nubes dispersas a una altura de 1500 ft
Nubes dispersas a una altura de 2500 ft
Cielo nuboso a una altura de 2000 ft
chaparrones de lluvia,

TAF: YBHM 230507Z 2306/2318 14020KT 9999 SCT025 FM231100 14020KT 9999 SCT015 SCT025 INTER 2306/2309 5000 SHRA BKN020

Observaciones y pronósticos meteorológicos de más de 4000 aeropuertos (mensajes METAR y TAF).

Los puntos amarillos y rojos representan las estaciones disponibles.

Ponga el ratón en el punto deseado para ver el nombre de la estación.

Haga clic para ver las observaciones y los pronósticos meteorológicos.

Para cambiar el mapa : haga clic en los botones verdes con una cruz de color negro para hacer un zoom, en el botón verde con un guión para alejar o en las flechas verdes para mapas adyacentes.


METAR-TAF: